sensor_id;sensor_type;location;lat;lon;timestamp;temperature;humidity
71175;DHT22;58876;51.994;4.472;2022-11-24T00:01:11;9.72;84.57
71175;DHT22;58876;51.994;4.472;2022-11-24T00:03:37;9.77;84.47
71175;DHT22;58876;51.994;4.472;2022-11-24T00:06:05;9.71;84.65
71175;DHT22;58876;51.994;4.472;2022-11-24T00:08:32;9.72;84.45
71175;DHT22;58876;51.994;4.472;2022-11-24T00:11:06;9.78;84.52
71175;DHT22;58876;51.994;4.472;2022-11-24T00:13:32;9.75;84.23
71175;DHT22;58876;51.994;4.472;2022-11-24T00:16:06;9.74;84.50
71175;DHT22;58876;51.994;4.472;2022-11-24T00:18:32;9.68;84.72
71175;DHT22;58876;51.994;4.472;2022-11-24T00:20:58;9.78;84.28
71175;DHT22;58876;51.994;4.472;2022-11-24T00:23:23;9.83;84.15
71175;DHT22;58876;51.994;4.472;2022-11-24T00:25:48;9.78;84.00
71175;DHT22;58876;51.994;4.472;2022-11-24T00:28:14;9.68;84.80
71175;DHT22;58876;51.994;4.472;2022-11-24T00:30:39;9.71;84.48
71175;DHT22;58876;51.994;4.472;2022-11-24T00:33:05;9.82;84.55
71175;DHT22;58876;51.994;4.472;2022-11-24T00:35:30;9.92;83.83
71175;DHT22;58876;51.994;4.472;2022-11-24T00:37:56;9.83;84.14
71175;DHT22;58876;51.994;4.472;2022-11-24T00:40:21;9.82;83.46
71175;DHT22;58876;51.994;4.472;2022-11-24T00:42:47;9.64;84.19
71175;DHT22;58876;51.994;4.472;2022-11-24T00:45:12;9.62;84.31
71175;DHT22;58876;51.994;4.472;2022-11-24T00:47:38;9.58;83.83
71175;DHT22;58876;51.994;4.472;2022-11-24T00:50:03;9.54;84.16
71175;DHT22;58876;51.994;4.472;2022-11-24T00:52:29;9.59;83.95
71175;DHT22;58876;51.994;4.472;2022-11-24T00:54:54;9.65;83.70
71175;DHT22;58876;51.994;4.472;2022-11-24T00:57:20;9.65;83.46
71175;DHT22;58876;51.994;4.472;2022-11-24T00:59:45;9.59;83.38
71175;DHT22;58876;51.994;4.472;2022-11-24T01:02:11;9.68;83.28
71175;DHT22;58876;51.994;4.472;2022-11-24T01:04:36;9.68;83.19
71175;DHT22;58876;51.994;4.472;2022-11-24T01:07:02;9.67;83.13
71175;DHT22;58876;51.994;4.472;2022-11-24T01:09:27;9.68;83.14
71175;DHT22;58876;51.994;4.472;2022-11-24T01:11:53;9.61;83.17
71175;DHT22;58876;51.994;4.472;2022-11-24T01:14:30;9.48;83.65
71175;DHT22;58876;51.994;4.472;2022-11-24T01:16:56;9.59;83.35
71175;DHT22;58876;51.994;4.472;2022-11-24T01:19:22;9.67;83.13
71175;DHT22;58876;51.994;4.472;2022-11-24T01:21:48;9.65;83.12
71175;DHT22;58876;51.994;4.472;2022-11-24T01:24:14;9.70;83.20
71175;DHT22;58876;51.994;4.472;2022-11-24T01:26:40;9.77;82.66
71175;DHT22;58876;51.994;4.472;2022-11-24T01:29:06;9.78;82.54
71175;DHT22;58876;51.994;4.472;2022-11-24T01:31:32;9.79;82.49
71175;DHT22;58876;51.994;4.472;2022-11-24T01:33:57;9.72;82.62
71175;DHT22;58876;51.994;4.472;2022-11-24T01:36:23;9.75;82.46
71175;DHT22;58876;51.994;4.472;2022-11-24T01:38:49;9.61;82.91
71175;DHT22;58876;51.994;4.472;2022-11-24T01:41:20;9.75;82.63
71175;DHT22;58876;51.994;4.472;2022-11-24T01:43:47;9.77;82.59
71175;DHT22;58876;51.994;4.472;2022-11-24T01:51:35;9.74;82.70
71175;DHT22;58876;51.994;4.472;2022-11-24T01:54:10;9.71;82.40
71175;DHT22;58876;51.994;4.472;2022-11-24T01:56:40;9.72;82.65
71175;DHT22;58876;51.994;4.472;2022-11-24T01:59:10;9.72;82.35
71175;DHT22;58876;51.994;4.472;2022-11-24T02:01:38;9.71;82.46
71175;DHT22;58876;51.994;4.472;2022-11-24T02:04:09;9.79;82.36
71175;DHT22;58876;51.994;4.472;2022-11-24T02:06:40;9.75;82.34
71175;DHT22;58876;51.994;4.472;2022-11-24T02:12:09;9.71;81.90
71175;DHT22;58876;51.994;4.472;2022-11-24T02:14:37;9.81;81.60
71175;DHT22;58876;51.994;4.472;2022-11-24T02:17:05;9.72;81.51
71175;DHT22;58876;51.994;4.472;2022-11-24T02:22:20;9.74;81.18
71175;DHT22;58876;51.994;4.472;2022-11-24T02:24:57;9.67;80.57
71175;DHT22;58876;51.994;4.472;2022-11-24T02:27:23;9.78;80.49
71175;DHT22;58876;51.994;4.472;2022-11-24T02:29:49;9.71;80.45
71175;DHT22;58876;51.994;4.472;2022-11-24T02:32:17;9.71;79.60
71175;DHT22;58876;51.994;4.472;2022-11-24T02:34:42;9.82;79.03
71175;DHT22;58876;51.994;4.472;2022-11-24T02:37:08;9.79;77.92
71175;DHT22;58876;51.994;4.472;2022-11-24T02:39:33;9.91;76.57
71175;DHT22;58876;51.994;4.472;2022-11-24T02:42:07;10.01;76.19
71175;DHT22;58876;51.994;4.472;2022-11-24T02:44:40;10.03;76.08
71175;DHT22;58876;51.994;4.472;2022-11-24T02:47:10;10.10;75.27
71175;DHT22;58876;51.994;4.472;2022-11-24T02:49:36;10.24;75.65
71175;DHT22;58876;51.994;4.472;2022-11-24T02:52:03;10.24;75.10
71175;DHT22;58876;51.994;4.472;2022-11-24T02:54:29;10.36;74.94
71175;DHT22;58876;51.994;4.472;2022-11-24T02:56:54;10.29;73.93
71175;DHT22;58876;51.994;4.472;2022-11-24T02:59:20;10.30;73.81
71175;DHT22;58876;51.994;4.472;2022-11-24T03:01:46;10.34;74.92
71175;DHT22;58876;51.994;4.472;2022-11-24T03:04:11;10.29;75.70
71175;DHT22;58876;51.994;4.472;2022-11-24T03:06:37;10.12;76.42
71175;DHT22;58876;51.994;4.472;2022-11-24T03:09:03;10.09;77.31
71175;DHT22;58876;51.994;4.472;2022-11-24T03:11:29;10.10;77.51
71175;DHT22;58876;51.994;4.472;2022-11-24T03:13:54;10.01;77.65
71175;DHT22;58876;51.994;4.472;2022-11-24T03:16:20;9.91;78.29
71175;DHT22;58876;51.994;4.472;2022-11-24T03:18:46;9.91;78.46
71175;DHT22;58876;51.994;4.472;2022-11-24T03:21:14;9.93;78.85
71175;DHT22;58876;51.994;4.472;2022-11-24T03:23:39;9.83;79.94
71175;DHT22;58876;51.994;4.472;2022-11-24T03:26:11;9.75;80.57
71175;DHT22;58876;51.994;4.472;2022-11-24T03:28:37;9.68;81.24
71175;DHT22;58876;51.994;4.472;2022-11-24T03:31:03;9.59;81.73
71175;DHT22;58876;51.994;4.472;2022-11-24T03:33:29;9.72;81.57
71175;DHT22;58876;51.994;4.472;2022-11-24T03:35:55;9.79;81.73
71175;DHT22;58876;51.994;4.472;2022-11-24T03:38:20;9.52;82.21
71175;DHT22;58876;51.994;4.472;2022-11-24T03:40:46;9.44;82.75
71175;DHT22;58876;51.994;4.472;2022-11-24T03:43:11;9.50;83.05
71175;DHT22;58876;51.994;4.472;2022-11-24T03:45:37;9.62;82.49
71175;DHT22;58876;51.994;4.472;2022-11-24T03:48:02;9.67;82.29
71175;DHT22;58876;51.994;4.472;2022-11-24T03:50:28;9.61;82.28
71175;DHT22;58876;51.994;4.472;2022-11-24T03:52:54;9.68;82.20
71175;DHT22;58876;51.994;4.472;2022-11-24T03:55:19;9.59;82.46
71175;DHT22;58876;51.994;4.472;2022-11-24T03:57:44;9.64;83.18
71175;DHT22;58876;51.994;4.472;2022-11-24T04:00:10;9.41;84.22
71175;DHT22;58876;51.994;4.472;2022-11-24T04:02:36;9.40;85.01
71175;DHT22;58876;51.994;4.472;2022-11-24T04:05:03;9.41;85.15
71175;DHT22;58876;51.994;4.472;2022-11-24T04:07:29;9.12;85.26
71175;DHT22;58876;51.994;4.472;2022-11-24T04:09:54;9.13;85.31
71175;DHT22;58876;51.994;4.472;2022-11-24T04:12:20;8.86;84.95
71175;DHT22;58876;51.994;4.472;2022-11-24T04:15:04;8.80;85.15
71175;DHT22;58876;51.994;4.472;2022-11-24T04:17:29;8.82;84.59
71175;DHT22;58876;51.994;4.472;2022-11-24T04:19:55;8.61;85.01
71175;DHT22;58876;51.994;4.472;2022-11-24T04:22:20;8.71;84.88
71175;DHT22;58876;51.994;4.472;2022-11-24T04:24:46;8.55;85.02
71175;DHT22;58876;51.994;4.472;2022-11-24T04:27:11;8.58;84.55
71175;DHT22;58876;51.994;4.472;2022-11-24T04:29:37;8.42;85.20
71175;DHT22;58876;51.994;4.472;2022-11-24T04:32:02;8.34;86.16
71175;DHT22;58876;51.994;4.472;2022-11-24T04:34:28;8.44;85.87
71175;DHT22;58876;51.994;4.472;2022-11-24T04:36:53;8.31;86.19
71175;DHT22;58876;51.994;4.472;2022-11-24T04:39:19;8.20;86.25
71175;DHT22;58876;51.994;4.472;2022-11-24T04:41:46;8.23;86.09
71175;DHT22;58876;51.994;4.472;2022-11-24T04:44:11;8.31;86.71
71175;DHT22;58876;51.994;4.472;2022-11-24T04:46:37;8.28;86.49
71175;DHT22;58876;51.994;4.472;2022-11-24T04:49:02;8.30;86.31
71175;DHT22;58876;51.994;4.472;2022-11-24T04:51:28;8.23;86.30
71175;DHT22;58876;51.994;4.472;2022-11-24T04:53:54;8.28;86.15
71175;DHT22;58876;51.994;4.472;2022-11-24T04:56:19;8.25;86.28
71175;DHT22;58876;51.994;4.472;2022-11-24T04:58:47;8.24;86.42
71175;DHT22;58876;51.994;4.472;2022-11-24T05:01:13;8.31;85.86
71175;DHT22;58876;51.994;4.472;2022-11-24T05:03:38;8.40;85.49
71175;DHT22;58876;51.994;4.472;2022-11-24T05:06:05;8.45;85.64
71175;DHT22;58876;51.994;4.472;2022-11-24T05:08:31;8.55;85.46
71175;DHT22;58876;51.994;4.472;2022-11-24T05:10:56;8.55;85.61
71175;DHT22;58876;51.994;4.472;2022-11-24T05:13:22;8.65;85.53
71175;DHT22;58876;51.994;4.472;2022-11-24T05:15:47;8.46;85.92
71175;DHT22;58876;51.994;4.472;2022-11-24T05:18:13;8.51;86.34
71175;DHT22;58876;51.994;4.472;2022-11-24T05:20:42;8.61;86.18
71175;DHT22;58876;51.994;4.472;2022-11-24T05:23:11;8.66;85.96
71175;DHT22;58876;51.994;4.472;2022-11-24T05:25:36;8.61;86.36
71175;DHT22;58876;51.994;4.472;2022-11-24T05:28:04;8.62;86.63
71175;DHT22;58876;51.994;4.472;2022-11-24T05:30:31;8.62;87.08
71175;DHT22;58876;51.994;4.472;2022-11-24T05:32:57;8.56;87.50
71175;DHT22;58876;51.994;4.472;2022-11-24T05:35:23;8.68;87.51
71175;DHT22;58876;51.994;4.472;2022-11-24T05:37:49;8.72;87.59
71175;DHT22;58876;51.994;4.472;2022-11-24T05:40:15;8.82;87.40
71175;DHT22;58876;51.994;4.472;2022-11-24T05:42:41;8.79;87.55
71175;DHT22;58876;51.994;4.472;2022-11-24T05:45:12;8.83;87.06
71175;DHT22;58876;51.994;4.472;2022-11-24T05:47:39;8.92;87.32
71175;DHT22;58876;51.994;4.472;2022-11-24T05:50:05;8.90;86.92
71175;DHT22;58876;51.994;4.472;2022-11-24T05:52:31;8.94;87.03
71175;DHT22;58876;51.994;4.472;2022-11-24T05:54:56;8.99;86.99
71175;DHT22;58876;51.994;4.472;2022-11-24T05:57:22;9.06;86.28
71175;DHT22;58876;51.994;4.472;2022-11-24T05:59:47;9.03;86.44
71175;DHT22;58876;51.994;4.472;2022-11-24T06:02:13;9.09;86.25
71175;DHT22;58876;51.994;4.472;2022-11-24T06:04:38;9.24;85.89
71175;DHT22;58876;51.994;4.472;2022-11-24T06:07:06;9.28;85.24
71175;DHT22;58876;51.994;4.472;2022-11-24T06:09:35;9.06;85.78
71175;DHT22;58876;51.994;4.472;2022-11-24T06:12:03;9.09;85.89
71175;DHT22;58876;51.994;4.472;2022-11-24T06:14:28;9.10;85.80
71175;DHT22;58876;51.994;4.472;2022-11-24T06:16:53;9.12;85.77
71175;DHT22;58876;51.994;4.472;2022-11-24T06:19:19;9.06;86.10
71175;DHT22;58876;51.994;4.472;2022-11-24T06:21:45;9.03;85.94
71175;DHT22;58876;51.994;4.472;2022-11-24T06:24:10;9.23;85.98
71175;DHT22;58876;51.994;4.472;2022-11-24T06:26:36;9.24;85.32
71175;DHT22;58876;51.994;4.472;2022-11-24T06:29:01;9.26;85.74
71175;DHT22;58876;51.994;4.472;2022-11-24T06:31:27;9.22;85.67
71175;DHT22;58876;51.994;4.472;2022-11-24T06:33:52;9.04;86.17
71175;DHT22;58876;51.994;4.472;2022-11-24T06:36:18;9.07;86.22
71175;DHT22;58876;51.994;4.472;2022-11-24T06:38:43;9.03;86.60
71175;DHT22;58876;51.994;4.472;2022-11-24T06:41:12;9.17;86.31
71175;DHT22;58876;51.994;4.472;2022-11-24T06:43:38;9.19;86.35
71175;DHT22;58876;51.994;4.472;2022-11-24T06:46:04;9.34;85.83
71175;DHT22;58876;51.994;4.472;2022-11-24T06:48:29;9.20;86.15
71175;DHT22;58876;51.994;4.472;2022-11-24T06:50:59;9.34;86.01
71175;DHT22;58876;51.994;4.472;2022-11-24T06:53:25;9.26;86.04
71175;DHT22;58876;51.994;4.472;2022-11-24T06:55:51;9.30;86.25
71175;DHT22;58876;51.994;4.472;2022-11-24T06:58:17;9.33;86.62
71175;DHT22;58876;51.994;4.472;2022-11-24T07:00:42;9.41;86.01
71175;DHT22;58876;51.994;4.472;2022-11-24T07:03:15;9.48;86.22
71175;DHT22;58876;51.994;4.472;2022-11-24T07:05:42;9.58;85.89
71175;DHT22;58876;51.994;4.472;2022-11-24T07:08:08;9.58;86.11
71175;DHT22;58876;51.994;4.472;2022-11-24T07:10:33;9.54;86.08
71175;DHT22;58876;51.994;4.472;2022-11-24T07:12:59;9.48;86.83
71175;DHT22;58876;51.994;4.472;2022-11-24T07:15:27;9.40;87.14
71175;DHT22;58876;51.994;4.472;2022-11-24T07:17:52;9.43;87.30
71175;DHT22;58876;51.994;4.472;2022-11-24T07:20:17;9.51;86.91
71175;DHT22;58876;51.994;4.472;2022-11-24T07:22:43;9.58;86.70
71175;DHT22;58876;51.994;4.472;2022-11-24T07:25:08;9.54;86.30
71175;DHT22;58876;51.994;4.472;2022-11-24T07:27:35;9.44;86.82
71175;DHT22;58876;51.994;4.472;2022-11-24T07:30:00;9.37;87.06
71175;DHT22;58876;51.994;4.472;2022-11-24T07:32:26;9.51;86.70
71175;DHT22;58876;51.994;4.472;2022-11-24T07:34:51;9.52;85.83
71175;DHT22;58876;51.994;4.472;2022-11-24T07:37:17;9.35;86.51
71175;DHT22;58876;51.994;4.472;2022-11-24T07:39:42;9.44;86.48
71175;DHT22;58876;51.994;4.472;2022-11-24T07:42:08;9.35;86.38
71175;DHT22;58876;51.994;4.472;2022-11-24T07:44:34;9.40;86.22
71175;DHT22;58876;51.994;4.472;2022-11-24T07:47:00;9.40;86.00
71175;DHT22;58876;51.994;4.472;2022-11-24T07:49:25;9.41;86.40
71175;DHT22;58876;51.994;4.472;2022-11-24T07:51:51;9.38;86.27
71175;DHT22;58876;51.994;4.472;2022-11-24T07:54:16;9.40;86.06
71175;DHT22;58876;51.994;4.472;2022-11-24T07:56:42;9.44;85.95
71175;DHT22;58876;51.994;4.472;2022-11-24T07:59:07;9.44;86.21
71175;DHT22;58876;51.994;4.472;2022-11-24T08:01:33;9.51;85.63
71175;DHT22;58876;51.994;4.472;2022-11-24T08:04:00;9.54;85.73
71175;DHT22;58876;51.994;4.472;2022-11-24T08:06:29;9.43;86.17
71175;DHT22;58876;51.994;4.472;2022-11-24T08:08:55;9.54;85.72
71175;DHT22;58876;51.994;4.472;2022-11-24T08:11:21;9.37;86.51
71175;DHT22;58876;51.994;4.472;2022-11-24T08:13:46;9.43;86.36
71175;DHT22;58876;51.994;4.472;2022-11-24T08:16:14;9.58;86.03
71175;DHT22;58876;51.994;4.472;2022-11-24T08:18:41;9.54;86.12
71175;DHT22;58876;51.994;4.472;2022-11-24T08:21:11;9.59;86.29
71175;DHT22;58876;51.994;4.472;2022-11-24T08:23:37;9.79;85.41
71175;DHT22;58876;51.994;4.472;2022-11-24T08:26:09;9.86;85.27
71175;DHT22;58876;51.994;4.472;2022-11-24T08:28:35;9.83;85.25
71175;DHT22;58876;51.994;4.472;2022-11-24T08:31:11;10.02;85.23
71175;DHT22;58876;51.994;4.472;2022-11-24T08:33:37;10.13;84.89
71175;DHT22;58876;51.994;4.472;2022-11-24T08:36:09;10.16;84.68
71175;DHT22;58876;51.994;4.472;2022-11-24T08:38:35;10.20;84.52
71175;DHT22;58876;51.994;4.472;2022-11-24T08:41:03;10.06;84.68
71175;DHT22;58876;51.994;4.472;2022-11-24T08:43:29;10.16;84.76
71175;DHT22;58876;51.994;4.472;2022-11-24T08:45:59;10.10;84.80
71175;DHT22;58876;51.994;4.472;2022-11-24T08:48:24;10.30;84.54
71175;DHT22;58876;51.994;4.472;2022-11-24T08:50:50;10.20;84.41
71175;DHT22;58876;51.994;4.472;2022-11-24T08:53:15;10.47;83.93
71175;DHT22;58876;51.994;4.472;2022-11-24T08:55:41;10.42;84.42
71175;DHT22;58876;51.994;4.472;2022-11-24T08:58:06;10.57;84.23
71175;DHT22;58876;51.994;4.472;2022-11-24T09:00:32;10.53;83.70
71175;DHT22;58876;51.994;4.472;2022-11-24T09:02:58;10.59;83.84
71175;DHT22;58876;51.994;4.472;2022-11-24T09:05:24;10.63;83.29
71175;DHT22;58876;51.994;4.472;2022-11-24T09:07:50;10.68;83.16
71175;DHT22;58876;51.994;4.472;2022-11-24T09:10:15;10.68;83.04
71175;DHT22;58876;51.994;4.472;2022-11-24T09:12:44;10.84;82.85
71175;DHT22;58876;51.994;4.472;2022-11-24T09:15:10;10.81;82.55
71175;DHT22;58876;51.994;4.472;2022-11-24T09:17:35;10.85;81.86
71175;DHT22;58876;51.994;4.472;2022-11-24T09:20:02;10.84;81.72
71175;DHT22;58876;51.994;4.472;2022-11-24T09:22:29;10.75;82.14
71175;DHT22;58876;51.994;4.472;2022-11-24T09:24:55;10.65;81.81
71175;DHT22;58876;51.994;4.472;2022-11-24T09:27:21;10.94;82.03
71175;DHT22;58876;51.994;4.472;2022-11-24T09:29:46;10.87;81.86
71175;DHT22;58876;51.994;4.472;2022-11-24T09:32:11;10.98;81.79
71175;DHT22;58876;51.994;4.472;2022-11-24T09:34:37;10.88;81.48
71175;DHT22;58876;51.994;4.472;2022-11-24T09:37:02;11.14;81.76
71175;DHT22;58876;51.994;4.472;2022-11-24T09:39:28;11.31;80.91
71175;DHT22;58876;51.994;4.472;2022-11-24T09:42:48;10.94;81.28
71175;DHT22;58876;51.994;4.472;2022-11-24T09:45:20;10.91;81.73
71175;DHT22;58876;51.994;4.472;2022-11-24T09:48:06;11.09;81.02
71175;DHT22;58876;51.994;4.472;2022-11-24T09:50:36;11.19;80.87
71175;DHT22;58876;51.994;4.472;2022-11-24T09:53:18;11.01;81.27
71175;DHT22;58876;51.994;4.472;2022-11-24T09:55:49;10.90;81.14
71175;DHT22;58876;51.994;4.472;2022-11-24T10:01:34;11.29;80.03
71175;DHT22;58876;51.994;4.472;2022-11-24T10:04:02;11.23;79.85
71175;DHT22;58876;51.994;4.472;2022-11-24T10:15:12;11.00;79.84
71175;DHT22;58876;51.994;4.472;2022-11-24T10:18:10;10.95;79.45
71175;DHT22;58876;51.994;4.472;2022-11-24T10:20:46;11.04;79.17
71175;DHT22;58876;51.994;4.472;2022-11-24T10:25:58;11.22;78.76
71175;DHT22;58876;51.994;4.472;2022-11-24T10:28:30;11.29;79.00
71175;DHT22;58876;51.994;4.472;2022-11-24T10:31:28;11.33;78.32
71175;DHT22;58876;51.994;4.472;2022-11-24T10:33:59;11.40;78.42
71175;DHT22;58876;51.994;4.472;2022-11-24T10:36:41;11.29;78.33
71175;DHT22;58876;51.994;4.472;2022-11-24T10:42:17;11.77;78.40
71175;DHT22;58876;51.994;4.472;2022-11-24T10:44:44;11.62;77.16
71175;DHT22;58876;51.994;4.472;2022-11-24T10:47:20;11.47;77.10
71175;DHT22;58876;51.994;4.472;2022-11-24T10:52:37;11.60;77.75
71175;DHT22;58876;51.994;4.472;2022-11-24T10:55:05;11.62;77.74
71175;DHT22;58876;51.994;4.472;2022-11-24T10:57:33;11.90;77.26
71175;DHT22;58876;51.994;4.472;2022-11-24T11:00:01;12.13;76.74
71175;DHT22;58876;51.994;4.472;2022-11-24T11:02:37;11.81;76.13
71175;DHT22;58876;51.994;4.472;2022-11-24T11:10:41;12.10;76.16
71175;DHT22;58876;51.994;4.472;2022-11-24T11:13:28;11.97;76.40
71175;DHT22;58876;51.994;4.472;2022-11-24T11:15:58;12.02;76.46
71175;DHT22;58876;51.994;4.472;2022-11-24T11:18:30;12.07;76.24
71175;DHT22;58876;51.994;4.472;2022-11-24T11:20:59;12.18;75.65
71175;DHT22;58876;51.994;4.472;2022-11-24T11:23:34;12.22;75.74
71175;DHT22;58876;51.994;4.472;2022-11-24T11:28:57;12.04;75.26
71175;DHT22;58876;51.994;4.472;2022-11-24T11:31:25;12.08;76.01
71175;DHT22;58876;51.994;4.472;2022-11-24T11:33:56;12.50;75.16
71175;DHT22;58876;51.994;4.472;2022-11-24T11:36:22;12.58;74.49
71175;DHT22;58876;51.994;4.472;2022-11-24T11:38:48;12.69;74.68
71175;DHT22;58876;51.994;4.472;2022-11-24T11:41:20;12.79;74.43
71175;DHT22;58876;51.994;4.472;2022-11-24T11:43:59;12.99;73.76
71175;DHT22;58876;51.994;4.472;2022-11-24T11:46:30;12.75;73.98
71175;DHT22;58876;51.994;4.472;2022-11-24T11:48:57;12.82;74.00
71175;DHT22;58876;51.994;4.472;2022-11-24T11:51:43;12.55;74.41
71175;DHT22;58876;51.994;4.472;2022-11-24T11:57:09;12.69;74.10
71175;DHT22;58876;51.994;4.472;2022-11-24T11:59:56;12.82;74.00
71175;DHT22;58876;51.994;4.472;2022-11-24T12:05:34;12.75;74.10
71175;DHT22;58876;51.994;4.472;2022-11-24T12:08:26;13.16;73.62
71175;DHT22;58876;51.994;4.472;2022-11-24T12:11:12;12.95;72.43
71175;DHT22;58876;51.994;4.472;2022-11-24T12:14:02;13.00;72.29
71175;DHT22;58876;51.994;4.472;2022-11-24T12:22:42;12.83;73.12
71175;DHT22;58876;51.994;4.472;2022-11-24T12:31:01;12.48;74.25
71175;DHT22;58876;51.994;4.472;2022-11-24T12:33:42;12.75;73.86
71175;DHT22;58876;51.994;4.472;2022-11-24T12:39:21;12.87;73.08
71175;DHT22;58876;51.994;4.472;2022-11-24T12:45:03;13.40;72.99
71175;DHT22;58876;51.994;4.472;2022-11-24T12:50:18;12.73;73.90
71175;DHT22;58876;51.994;4.472;2022-11-24T12:52:52;12.87;74.14
71175;DHT22;58876;51.994;4.472;2022-11-24T12:55:21;13.02;73.74
71175;DHT22;58876;51.994;4.472;2022-11-24T13:00:42;12.78;74.68
71175;DHT22;58876;51.994;4.472;2022-11-24T13:03:43;12.97;74.85
71175;DHT22;58876;51.994;4.472;2022-11-24T13:08:38;12.69;75.01
71175;DHT22;58876;51.994;4.472;2022-11-24T13:11:40;12.76;75.11
71175;DHT22;58876;51.994;4.472;2022-11-24T13:14:28;13.02;74.20
71175;DHT22;58876;51.994;4.472;2022-11-24T13:17:25;13.51;72.51
71175;DHT22;58876;51.994;4.472;2022-11-24T13:19:51;13.74;71.40
71175;DHT22;58876;51.994;4.472;2022-11-24T13:22:23;13.95;70.66
71175;DHT22;58876;51.994;4.472;2022-11-24T13:25:18;14.01;71.57
71175;DHT22;58876;51.994;4.472;2022-11-24T13:27:47;13.81;71.22
71175;DHT22;58876;51.994;4.472;2022-11-24T13:41:58;12.58;75.00
71175;DHT22;58876;51.994;4.472;2022-11-24T13:47:02;12.59;75.23
71175;DHT22;58876;51.994;4.472;2022-11-24T13:49:39;12.58;75.23
71175;DHT22;58876;51.994;4.472;2022-11-24T13:57:44;12.62;75.50
71175;DHT22;58876;51.994;4.472;2022-11-24T14:02:51;12.99;73.46
71175;DHT22;58876;51.994;4.472;2022-11-24T14:05:23;12.89;73.16
71175;DHT22;58876;51.994;4.472;2022-11-24T14:07:52;12.66;73.97
71175;DHT22;58876;51.994;4.472;2022-11-24T14:10:34;12.72;75.02
71175;DHT22;58876;51.994;4.472;2022-11-24T14:16:13;12.56;74.14
71175;DHT22;58876;51.994;4.472;2022-11-24T14:18:41;12.53;74.74
71175;DHT22;58876;51.994;4.472;2022-11-24T14:21:35;12.50;74.65
71175;DHT22;58876;51.994;4.472;2022-11-24T14:24:21;12.38;74.89
71175;DHT22;58876;51.994;4.472;2022-11-24T14:26:49;12.22;75.19
71175;DHT22;58876;51.994;4.472;2022-11-24T14:29:22;12.41;74.92
71175;DHT22;58876;51.994;4.472;2022-11-24T14:32:00;12.31;74.91
71175;DHT22;58876;51.994;4.472;2022-11-24T14:34:30;12.38;75.30
71175;DHT22;58876;51.994;4.472;2022-11-24T14:36:57;12.42;74.41
71175;DHT22;58876;51.994;4.472;2022-11-24T14:39:25;12.39;75.00
71175;DHT22;58876;51.994;4.472;2022-11-24T14:42:15;12.22;75.45
71175;DHT22;58876;51.994;4.472;2022-11-24T14:49:43;12.00;76.21
71175;DHT22;58876;51.994;4.472;2022-11-24T14:52:15;11.89;76.16
71175;DHT22;58876;51.994;4.472;2022-11-24T14:54:48;11.93;76.08
71175;DHT22;58876;51.994;4.472;2022-11-24T14:57:24;11.93;76.04
71175;DHT22;58876;51.994;4.472;2022-11-24T15:00:16;11.93;75.92
71175;DHT22;58876;51.994;4.472;2022-11-24T15:02:47;11.98;75.99
71175;DHT22;58876;51.994;4.472;2022-11-24T15:05:14;12.00;75.76
71175;DHT22;58876;51.994;4.472;2022-11-24T15:07:44;11.77;76.25
71175;DHT22;58876;51.994;4.472;2022-11-24T15:10:36;11.73;76.53
71175;DHT22;58876;51.994;4.472;2022-11-24T15:13:17;11.86;75.99
71175;DHT22;58876;51.994;4.472;2022-11-24T15:15:49;11.80;75.97
71175;DHT22;58876;51.994;4.472;2022-11-24T15:18:40;11.71;76.13
71175;DHT22;58876;51.994;4.472;2022-11-24T15:21:07;11.65;76.32
71175;DHT22;58876;51.994;4.472;2022-11-24T15:23:34;11.56;76.45
71175;DHT22;58876;51.994;4.472;2022-11-24T15:28:25;11.55;76.49
71175;DHT22;58876;51.994;4.472;2022-11-24T15:30:52;11.53;76.36
71175;DHT22;58876;51.994;4.472;2022-11-24T15:33:20;11.47;76.55
71175;DHT22;58876;51.994;4.472;2022-11-24T15:35:46;11.59;76.41
71175;DHT22;58876;51.994;4.472;2022-11-24T15:38:12;11.56;76.28
71175;DHT22;58876;51.994;4.472;2022-11-24T15:40:41;11.39;76.67
71175;DHT22;58876;51.994;4.472;2022-11-24T15:45:42;11.35;76.64
71175;DHT22;58876;51.994;4.472;2022-11-24T15:48:07;11.32;76.78
71175;DHT22;58876;51.994;4.472;2022-11-24T15:50:35;11.36;76.59
71175;DHT22;58876;51.994;4.472;2022-11-24T15:53:02;11.26;76.94
71175;DHT22;58876;51.994;4.472;2022-11-24T15:55:28;11.31;76.86
71175;DHT22;58876;51.994;4.472;2022-11-24T15:57:53;11.32;76.88
71175;DHT22;58876;51.994;4.472;2022-11-24T16:00:21;11.26;77.03
71175;DHT22;58876;51.994;4.472;2022-11-24T16:02:48;11.16;76.94
71175;DHT22;58876;51.994;4.472;2022-11-24T16:05:15;11.32;76.62
71175;DHT22;58876;51.994;4.472;2022-11-24T16:07:41;11.35;76.33
71175;DHT22;58876;51.994;4.472;2022-11-24T16:10:19;11.31;76.06
71175;DHT22;58876;51.994;4.472;2022-11-24T16:12:45;11.14;76.52
71175;DHT22;58876;51.994;4.472;2022-11-24T16:15:11;11.12;76.48
71175;DHT22;58876;51.994;4.472;2022-11-24T16:17:36;11.15;76.64
71175;DHT22;58876;51.994;4.472;2022-11-24T16:20:02;11.22;76.22
71175;DHT22;58876;51.994;4.472;2022-11-24T16:22:29;11.18;76.39
71175;DHT22;58876;51.994;4.472;2022-11-24T16:24:54;11.21;76.31
71175;DHT22;58876;51.994;4.472;2022-11-24T16:27:20;11.19;76.41
71175;DHT22;58876;51.994;4.472;2022-11-24T16:29:45;11.33;75.85
71175;DHT22;58876;51.994;4.472;2022-11-24T16:32:10;11.29;75.73
71175;DHT22;58876;51.994;4.472;2022-11-24T16:34:36;11.26;75.83
71175;DHT22;58876;51.994;4.472;2022-11-24T16:37:01;11.22;75.92
71175;DHT22;58876;51.994;4.472;2022-11-24T16:39:27;11.25;76.01
71175;DHT22;58876;51.994;4.472;2022-11-24T16:41:52;11.21;76.01
71175;DHT22;58876;51.994;4.472;2022-11-24T16:44:17;11.36;75.81
71175;DHT22;58876;51.994;4.472;2022-11-24T16:46:43;11.28;76.02
71175;DHT22;58876;51.994;4.472;2022-11-24T16:49:09;11.31;75.85
71175;DHT22;58876;51.994;4.472;2022-11-24T16:51:34;11.31;76.00
71175;DHT22;58876;51.994;4.472;2022-11-24T16:54:01;11.14;76.65
71175;DHT22;58876;51.994;4.472;2022-11-24T16:56:27;11.21;76.17
71175;DHT22;58876;51.994;4.472;2022-11-24T16:58:53;11.09;76.45
71175;DHT22;58876;51.994;4.472;2022-11-24T17:01:20;11.05;76.63
71175;DHT22;58876;51.994;4.472;2022-11-24T17:03:45;11.09;76.54
71175;DHT22;58876;51.994;4.472;2022-11-24T17:06:14;11.12;76.51
71175;DHT22;58876;51.994;4.472;2022-11-24T17:08:44;11.14;76.50
71175;DHT22;58876;51.994;4.472;2022-11-24T17:13:38;11.08;76.55
71175;DHT22;58876;51.994;4.472;2022-11-24T17:16:06;11.15;76.50
71175;DHT22;58876;51.994;4.472;2022-11-24T17:18:33;11.02;76.44
71175;DHT22;58876;51.994;4.472;2022-11-24T17:21:00;11.12;76.33
71175;DHT22;58876;51.994;4.472;2022-11-24T17:23:26;11.05;76.44
71175;DHT22;58876;51.994;4.472;2022-11-24T17:25:52;11.12;76.35
71175;DHT22;58876;51.994;4.472;2022-11-24T17:28:18;11.05;76.46
71175;DHT22;58876;51.994;4.472;2022-11-24T17:30:43;11.04;76.26
71175;DHT22;58876;51.994;4.472;2022-11-24T17:33:09;10.87;77.08
71175;DHT22;58876;51.994;4.472;2022-11-24T17:35:35;10.82;77.16
71175;DHT22;58876;51.994;4.472;2022-11-24T17:38:02;10.82;77.10